createdAt,value
2023-05-18T00:00:02.452Z,102057.28
2023-05-18T00:02:29.080Z,102062.44
2023-05-18T00:04:55.671Z,102060.50
2023-05-18T00:07:22.479Z,102062.88
2023-05-18T00:09:49.024Z,102076.53
2023-05-18T00:12:15.667Z,102068.41
2023-05-18T00:14:42.190Z,102072.47
2023-05-18T00:17:08.675Z,102078.66
2023-05-18T00:19:35.168Z,102077.50
2023-05-18T00:22:02.287Z,102074.31
2023-05-18T00:24:28.948Z,102076.53
2023-05-18T00:26:55.507Z,102070.13
2023-05-18T00:29:22.073Z,102084.00
2023-05-18T00:31:48.752Z,102069.69
2023-05-18T00:34:16.204Z,102073.75
2023-05-18T00:36:42.987Z,102070.16
2023-05-18T00:39:09.671Z,102081.75
2023-05-18T00:41:36.572Z,102083.69
2023-05-18T00:44:04.642Z,102077.16
2023-05-18T00:46:31.405Z,102080.81
2023-05-18T00:48:58.848Z,102079.31
2023-05-18T00:51:26.065Z,102085.38
2023-05-18T00:53:54.986Z,102086.03
2023-05-18T00:56:26.338Z,102084.28
2023-05-18T00:58:57.565Z,102094.16
2023-05-18T01:01:29.605Z,102092.56
2023-05-18T01:03:57.965Z,102091.72
2023-05-18T01:07:16.811Z,102089.13
2023-05-18T01:09:43.357Z,102097.03
2023-05-18T01:12:33.092Z,102101.28
2023-05-18T01:15:05.468Z,102105.34
2023-05-18T01:18:05.102Z,102105.13
2023-05-18T01:20:38.086Z,102109.22
2023-05-18T01:23:45.240Z,102112.63
2023-05-18T01:26:16.795Z,102109.88
2023-05-18T01:28:46.542Z,102106.44
2023-05-18T01:31:16.117Z,102106.63
2023-05-18T01:33:44.491Z,102113.78
2023-05-18T01:36:11.473Z,102111.78
2023-05-18T01:38:41.676Z,102111.44
2023-05-18T01:41:24.303Z,102108.66
2023-05-18T01:44:24.767Z,102112.84
2023-05-18T01:47:00.211Z,102118.91
2023-05-18T01:49:37.652Z,102114.13
2023-05-18T01:52:09.058Z,102116.47
2023-05-18T01:54:38.553Z,102110.28
2023-05-18T01:57:08.327Z,102112.31
2023-05-18T01:59:36.225Z,102112.09
2023-05-18T02:02:03.583Z,102110.84
2023-05-18T02:04:30.227Z,102117.59
2023-05-18T02:06:56.943Z,102120.88
2023-05-18T02:09:23.636Z,102119.91
2023-05-18T02:11:50.149Z,102115.78
2023-05-18T02:14:16.669Z,102122.88
2023-05-18T02:16:47.412Z,102116.19
2023-05-18T02:19:17.531Z,102117.88
2023-05-18T02:21:44.669Z,102121.84
2023-05-18T02:24:12.545Z,102116.38
2023-05-18T02:26:39.754Z,102123.28
2023-05-18T02:29:06.680Z,102117.28
2023-05-18T02:31:33.275Z,102120.22
2023-05-18T02:33:59.813Z,102129.84
2023-05-18T02:36:26.303Z,102130.88
2023-05-18T02:38:52.970Z,102120.88
2023-05-18T02:41:19.504Z,102126.50
2023-05-18T02:43:45.943Z,102124.69
2023-05-18T02:46:12.435Z,102121.84
2023-05-18T02:48:38.976Z,102132.31
2023-05-18T02:51:05.481Z,102132.09
2023-05-18T02:53:32.032Z,102134.84
2023-05-18T02:55:58.544Z,102128.34
2023-05-18T02:58:25.661Z,102130.63
2023-05-18T03:00:55.186Z,102135.13
2023-05-18T03:03:23.848Z,102133.81
2023-05-18T03:05:52.959Z,102136.72
2023-05-18T03:08:26.927Z,102142.25
2023-05-18T03:10:53.590Z,102139.47
2023-05-18T03:13:20.236Z,102138.56
2023-05-18T03:15:47.104Z,102137.13
2023-05-18T03:18:13.636Z,102139.34
2023-05-18T03:20:40.687Z,102138.09
2023-05-18T03:23:07.451Z,102139.25
2023-05-18T03:25:37.235Z,102140.97
2023-05-18T03:28:05.458Z,102134.34
2023-05-18T03:30:34.032Z,102135.81
2023-05-18T03:33:01.997Z,102137.53
2023-05-18T03:35:29.173Z,102134.56
2023-05-18T03:37:56.100Z,102143.44
2023-05-18T03:40:23.231Z,102143.63
2023-05-18T03:42:49.773Z,102141.91
2023-05-18T03:45:16.414Z,102146.09
2023-05-18T03:47:43.078Z,102148.25
2023-05-18T03:50:10.603Z,102145.19
2023-05-18T03:52:37.385Z,102149.97
2023-05-18T03:55:05.093Z,102143.47
2023-05-18T03:57:32.277Z,102153.84
2023-05-18T03:59:58.857Z,102168.22
2023-05-18T04:02:25.867Z,102156.25
2023-05-18T04:04:54.564Z,102169.09
2023-05-18T04:07:24.234Z,102161.00
2023-05-18T04:09:55.633Z,102162.84
2023-05-18T04:12:22.566Z,102160.88
2023-05-18T04:14:51.712Z,102169.53
2023-05-18T04:17:22.239Z,102169.13
2023-05-18T04:19:50.085Z,102178.66
2023-05-18T04:22:17.256Z,102171.25
2023-05-18T04:24:45.730Z,102180.56
2023-05-18T04:27:12.368Z,102172.84
2023-05-18T04:29:40.246Z,102180.06
2023-05-18T04:32:08.033Z,102181.56
2023-05-18T04:34:37.988Z,102189.66
2023-05-18T04:37:07.982Z,102185.94
2023-05-18T04:39:35.130Z,102189.84
2023-05-18T04:42:04.541Z,102188.97
2023-05-18T04:44:34.114Z,102188.91
2023-05-18T04:47:00.921Z,102190.34
2023-05-18T04:49:28.248Z,102193.66
2023-05-18T04:51:56.718Z,102199.78
2023-05-18T04:54:24.159Z,102195.56
2023-05-18T04:56:51.656Z,102197.47
2023-05-18T04:59:18.862Z,102194.50
2023-05-18T05:01:46.341Z,102204.78
2023-05-18T05:04:13.423Z,102197.88
2023-05-18T05:06:39.966Z,102192.44
2023-05-18T05:09:06.460Z,102191.84
2023-05-18T05:11:33.028Z,102189.25
2023-05-18T05:14:04.140Z,102196.53
2023-05-18T05:16:30.981Z,102195.13
2023-05-18T05:18:57.622Z,102193.22
2023-05-18T05:21:24.251Z,102192.41
2023-05-18T05:23:50.865Z,102200.94
2023-05-18T05:26:18.230Z,102203.63
2023-05-18T05:28:44.748Z,102206.22
2023-05-18T05:31:11.596Z,102198.66
2023-05-18T05:33:38.347Z,102196.63
2023-05-18T05:36:05.427Z,102208.34
2023-05-18T05:38:32.641Z,102208.88
2023-05-18T05:40:59.253Z,102216.69
2023-05-18T05:43:26.347Z,102221.00
2023-05-18T05:45:54.268Z,102222.28
2023-05-18T05:48:20.957Z,102213.50
2023-05-18T05:50:47.523Z,102227.41
2023-05-18T05:53:17.778Z,102229.75
2023-05-18T05:55:44.294Z,102220.38
2023-05-18T05:58:11.140Z,102220.81
2023-05-18T06:00:37.688Z,102224.41
2023-05-18T06:03:04.199Z,102229.06
2023-05-18T06:05:30.944Z,102233.97
2023-05-18T06:07:57.653Z,102229.28
2023-05-18T06:10:24.256Z,102233.13
2023-05-18T06:12:50.950Z,102226.19
2023-05-18T06:15:18.864Z,102227.38
2023-05-18T06:17:45.571Z,102223.22
2023-05-18T06:20:12.896Z,102228.22
2023-05-18T06:22:39.541Z,102225.28
2023-05-18T06:25:06.196Z,102226.56
2023-05-18T06:27:33.021Z,102225.63
2023-05-18T06:29:59.475Z,102227.97
2023-05-18T06:32:26.108Z,102232.19
2023-05-18T06:34:52.744Z,102227.00
2023-05-18T06:37:20.639Z,102233.25
2023-05-18T06:39:47.200Z,102233.75
2023-05-18T06:42:13.720Z,102231.41
2023-05-18T06:44:40.160Z,102237.94
2023-05-18T06:47:07.048Z,102234.13
2023-05-18T06:49:33.686Z,102234.16
2023-05-18T06:52:00.184Z,102230.50
2023-05-18T06:54:26.822Z,102234.38
2023-05-18T06:56:53.334Z,102233.50
2023-05-18T06:59:19.824Z,102232.69
2023-05-18T07:01:46.493Z,102228.97
2023-05-18T07:04:13.259Z,102238.94
2023-05-18T07:06:39.901Z,102228.88
2023-05-18T07:09:08.026Z,102224.22
2023-05-18T07:11:34.619Z,102229.75
2023-05-18T07:14:01.552Z,102226.47
2023-05-18T07:16:28.292Z,102223.91
2023-05-18T07:18:54.901Z,102215.16
2023-05-18T07:21:21.483Z,102223.91
2023-05-18T07:23:47.961Z,102222.59
2023-05-18T07:26:14.446Z,102214.88
2023-05-18T07:28:41.034Z,102219.53
2023-05-18T07:31:07.697Z,102211.03
2023-05-18T07:33:34.475Z,102223.59
2023-05-18T07:36:01.088Z,102217.63
2023-05-18T07:38:28.536Z,102219.75
2023-05-18T07:40:55.008Z,102214.63
2023-05-18T07:43:21.494Z,102224.41
2023-05-18T07:45:47.995Z,102211.03
2023-05-18T07:48:14.548Z,102211.75
2023-05-18T07:50:41.383Z,102217.19
2023-05-18T07:53:07.892Z,102208.34
2023-05-18T07:55:34.547Z,102202.03
2023-05-18T07:58:01.118Z,102204.63
2023-05-18T08:00:28.100Z,102209.84
2023-05-18T08:02:55.007Z,102208.56
2023-05-18T08:05:22.694Z,102212.88
2023-05-18T08:07:49.592Z,102217.09
2023-05-18T08:10:16.088Z,102226.78
2023-05-18T08:12:42.709Z,102218.16
2023-05-18T08:15:10.496Z,102230.13
2023-05-18T08:17:37.031Z,102216.38
2023-05-18T08:20:04.996Z,102221.16
2023-05-18T08:22:31.451Z,102229.09
2023-05-18T08:25:00.876Z,102228.19
2023-05-18T08:27:28.841Z,102231.13
2023-05-18T08:29:55.305Z,102227.72
2023-05-18T08:32:21.903Z,102228.00
2023-05-18T08:34:51.312Z,102230.00
2023-05-18T08:37:17.864Z,102230.41
2023-05-18T08:39:46.092Z,102233.66
2023-05-18T08:42:49.507Z,102228.13
2023-05-18T08:45:33.148Z,102221.47
2023-05-18T08:48:01.642Z,102219.56
2023-05-18T08:50:32.013Z,102221.84
2023-05-18T08:53:02.344Z,102220.19
2023-05-18T08:55:29.592Z,102217.59
2023-05-18T08:58:00.090Z,102219.16
2023-05-18T09:00:27.363Z,102217.81
2023-05-18T09:02:54.459Z,102212.97
2023-05-18T09:05:22.975Z,102213.25
2023-05-18T09:07:52.428Z,102220.63
2023-05-18T09:10:19.046Z,102220.34
2023-05-18T09:12:47.199Z,102231.09
2023-05-18T09:15:15.866Z,102234.41
2023-05-18T09:17:42.489Z,102220.75
2023-05-18T09:20:10.143Z,102214.06
2023-05-18T09:22:37.174Z,102209.91
2023-05-18T09:25:04.111Z,102208.44
2023-05-18T09:27:31.081Z,102212.91
2023-05-18T09:29:58.654Z,102213.91
2023-05-18T09:32:26.505Z,102201.25
2023-05-18T09:34:53.889Z,102201.00
2023-05-18T09:37:21.872Z,102201.00
2023-05-18T09:39:59.209Z,102199.53
2023-05-18T09:42:39.436Z,102194.63
2023-05-18T09:45:16.232Z,102195.75
2023-05-18T09:47:42.869Z,102203.97
2023-05-18T09:50:09.736Z,102197.09
2023-05-18T09:52:47.227Z,102194.84
2023-05-18T09:55:16.623Z,102202.19
2023-05-18T09:57:44.671Z,102206.34
2023-05-18T10:00:12.782Z,102201.22
2023-05-18T10:02:48.617Z,102197.00
2023-05-18T10:05:20.235Z,102182.84
2023-05-18T10:07:48.494Z,102194.13
2023-05-18T10:10:19.640Z,102189.06
2023-05-18T10:12:46.461Z,102189.13
2023-05-18T10:15:18.155Z,102189.44
2023-05-18T10:17:46.693Z,102180.41
2023-05-18T10:20:17.390Z,102181.31
2023-05-18T10:22:46.446Z,102175.44
2023-05-18T10:25:19.455Z,102180.94
2023-05-18T10:27:48.282Z,102176.41
2023-05-18T10:30:16.532Z,102166.38
2023-05-18T10:32:43.821Z,102162.63
2023-05-18T10:35:11.151Z,102162.09
2023-05-18T10:37:40.210Z,102160.09
2023-05-18T10:40:08.558Z,102161.91
2023-05-18T10:42:35.237Z,102152.25
2023-05-18T10:45:02.855Z,102159.41
2023-05-18T10:47:29.627Z,102159.88
2023-05-18T10:49:59.682Z,102163.44
2023-05-18T10:52:31.714Z,102155.81
2023-05-18T10:55:01.606Z,102160.53
2023-05-18T10:57:37.969Z,102158.06
2023-05-18T11:00:07.849Z,102144.41
2023-05-18T11:02:35.162Z,102138.50
2023-05-18T11:05:05.777Z,102139.41
2023-05-18T11:07:34.014Z,102148.47
2023-05-18T11:10:08.658Z,102150.47
2023-05-18T11:12:38.239Z,102153.97
2023-05-18T11:15:05.954Z,102154.34
2023-05-18T11:17:32.834Z,102147.50
2023-05-18T11:20:09.051Z,102143.84
2023-05-18T11:22:45.342Z,102153.41
2023-05-18T11:25:24.086Z,102143.66
2023-05-18T11:27:52.169Z,102150.13
2023-05-18T11:30:34.025Z,102141.66
2023-05-18T11:33:24.490Z,102132.66
2023-05-18T11:36:09.436Z,102143.00
2023-05-18T11:38:49.531Z,102137.56
2023-05-18T11:41:29.262Z,102142.75
2023-05-18T11:44:15.925Z,102140.56
2023-05-18T11:46:56.350Z,102144.00
2023-05-18T11:49:28.527Z,102136.75
2023-05-18T11:52:06.129Z,102133.47
2023-05-18T11:54:42.837Z,102128.78
2023-05-18T11:57:11.250Z,102138.28
2023-05-18T11:59:39.161Z,102137.59
2023-05-18T12:02:06.378Z,102134.81
2023-05-18T12:04:34.107Z,102143.78
2023-05-18T12:07:05.699Z,102138.81
2023-05-18T12:09:32.321Z,102144.13
2023-05-18T12:11:58.813Z,102129.88
2023-05-18T12:14:26.636Z,102131.84
2023-05-18T12:16:54.616Z,102135.53
2023-05-18T12:19:23.476Z,102137.94
2023-05-18T12:21:50.033Z,102130.41
2023-05-18T12:24:16.923Z,102130.28
2023-05-18T12:26:46.612Z,102129.81
2023-05-18T12:29:20.052Z,102131.00
2023-05-18T12:31:47.677Z,102124.88
2023-05-18T12:34:14.900Z,102122.88
2023-05-18T12:36:54.745Z,102116.81
2023-05-18T12:39:21.763Z,102124.16
2023-05-18T12:41:48.780Z,102112.38
2023-05-18T12:44:15.475Z,102110.09
2023-05-18T12:46:43.301Z,102113.63
2023-05-18T12:49:10.839Z,102111.22
2023-05-18T12:51:39.039Z,102114.78
2023-05-18T12:54:06.961Z,102118.75
2023-05-18T12:56:51.530Z,102117.78
2023-05-18T12:59:21.042Z,102115.63
2023-05-18T13:01:47.674Z,102110.31
2023-05-18T13:04:14.291Z,102113.53
2023-05-18T13:06:41.989Z,102116.41
2023-05-18T13:09:17.688Z,102109.00
2023-05-18T13:11:59.982Z,102106.69
2023-05-18T13:14:38.121Z,102096.69
2023-05-18T13:17:04.916Z,102098.69
2023-05-18T13:19:35.731Z,102098.56
2023-05-18T13:22:02.294Z,102088.56
2023-05-18T13:24:28.993Z,102094.03
2023-05-18T13:26:55.528Z,102097.59
2023-05-18T13:29:22.060Z,102094.41
2023-05-18T13:31:48.614Z,102100.78
2023-05-18T13:34:15.131Z,102097.25
2023-05-18T13:36:41.688Z,102103.31
2023-05-18T13:39:08.359Z,102102.44
2023-05-18T13:41:36.368Z,102095.94
2023-05-18T13:44:03.441Z,102098.06
2023-05-18T13:46:30.033Z,102095.09
2023-05-18T13:48:56.544Z,102091.44
2023-05-18T13:51:23.044Z,102085.03
2023-05-18T13:53:49.603Z,102083.91
2023-05-18T13:56:16.333Z,102075.38
2023-05-18T13:58:43.654Z,102070.88
2023-05-18T14:01:12.759Z,102065.53
2023-05-18T14:03:40.607Z,102070.38
2023-05-18T14:06:07.491Z,102070.09
2023-05-18T14:08:34.224Z,102065.44
2023-05-18T14:11:00.861Z,102067.63
2023-05-18T14:13:27.399Z,102068.88
2023-05-18T14:15:53.902Z,102064.78
2023-05-18T14:18:20.364Z,102068.03
2023-05-18T14:20:48.446Z,102059.38
2023-05-18T14:23:15.025Z,102067.31
2023-05-18T14:25:43.566Z,102061.69
2023-05-18T14:28:10.426Z,102056.56
2023-05-18T14:30:37.152Z,102054.25
2023-05-18T14:33:04.084Z,102055.25
2023-05-18T14:35:30.616Z,102058.81
2023-05-18T14:37:57.070Z,102052.72
2023-05-18T14:40:23.651Z,102054.44
2023-05-18T14:42:52.253Z,102052.94
2023-05-18T14:45:20.543Z,102056.91
2023-05-18T14:47:47.183Z,102051.41
2023-05-18T14:50:13.706Z,102050.06
2023-05-18T14:52:40.278Z,102046.47
2023-05-18T14:55:07.048Z,102047.81
2023-05-18T14:57:33.641Z,102047.72
2023-05-18T15:00:00.946Z,102044.91
2023-05-18T15:02:27.822Z,102049.31
2023-05-18T15:04:54.456Z,102047.91
2023-05-18T15:07:21.015Z,102042.66
2023-05-18T15:09:47.501Z,102042.09
2023-05-18T15:12:13.987Z,102041.50
2023-05-18T15:14:40.459Z,102043.78
2023-05-18T15:17:08.474Z,102042.06
2023-05-18T15:19:35.012Z,102043.81
2023-05-18T15:22:01.660Z,102045.84
2023-05-18T15:24:28.204Z,102043.69
2023-05-18T15:26:54.770Z,102041.31
2023-05-18T15:29:21.629Z,102039.09
2023-05-18T15:31:50.891Z,102044.13
2023-05-18T15:34:17.677Z,102041.44
2023-05-18T15:36:44.149Z,102037.13
2023-05-18T15:39:10.630Z,102037.44
2023-05-18T15:41:37.211Z,102034.00
2023-05-18T15:44:04.002Z,102030.31
2023-05-18T15:46:33.107Z,102025.25
2023-05-18T15:48:59.826Z,102027.81
2023-05-18T15:51:26.357Z,102025.84
2023-05-18T15:53:53.112Z,102021.72
2023-05-18T15:56:19.795Z,102022.13
2023-05-18T15:58:46.389Z,102028.75
2023-05-18T16:01:12.915Z,102022.13
2023-05-18T16:03:39.734Z,102023.59
2023-05-18T16:06:06.557Z,102027.16
2023-05-18T16:08:35.583Z,102024.19
2023-05-18T16:11:02.364Z,102024.47
2023-05-18T16:13:28.883Z,102021.50
2023-05-18T16:15:55.455Z,102022.50
2023-05-18T16:18:21.968Z,102018.91
2023-05-18T16:20:48.714Z,102019.88
2023-05-18T16:23:15.157Z,102022.50
2023-05-18T16:25:42.175Z,102026.94
2023-05-18T16:28:08.691Z,102021.28
2023-05-18T16:30:35.162Z,102028.06
2023-05-18T16:33:01.832Z,102028.19
2023-05-18T16:35:30.932Z,102027.09
2023-05-18T16:37:57.861Z,102026.50
2023-05-18T16:40:24.370Z,102026.38
2023-05-18T16:42:50.881Z,102040.53
2023-05-18T16:45:17.395Z,102036.16
2023-05-18T16:47:44.598Z,102029.47
2023-05-18T16:50:11.306Z,102034.28
2023-05-18T16:52:37.754Z,102025.66
2023-05-18T16:55:04.515Z,102033.28
2023-05-18T16:57:30.991Z,102023.63
2023-05-18T16:59:57.470Z,102022.69
2023-05-18T17:02:24.478Z,102024.41
2023-05-18T17:04:51.101Z,102021.56
2023-05-18T17:07:17.729Z,102019.13
2023-05-18T17:09:44.629Z,102025.66
2023-05-18T17:12:11.920Z,102026.66
2023-05-18T17:14:38.521Z,102027.22
2023-05-18T17:17:06.157Z,102027.94
2023-05-18T17:19:34.769Z,102020.72
2023-05-18T17:22:01.452Z,102024.09
2023-05-18T17:24:28.071Z,102012.19
2023-05-18T17:26:54.732Z,102018.72
2023-05-18T17:29:22.074Z,102017.19
2023-05-18T17:31:48.877Z,102018.16
2023-05-18T17:34:15.576Z,102019.56
2023-05-18T17:36:42.624Z,102021.84
2023-05-18T17:39:09.474Z,102022.81
2023-05-18T17:41:36.354Z,102024.09
2023-05-18T17:44:03.122Z,102027.78
2023-05-18T17:46:30.096Z,102023.81
2023-05-18T17:48:56.856Z,102017.84
2023-05-18T17:51:24.658Z,102026.66
2023-05-18T17:53:51.598Z,102036.69
2023-05-18T17:56:18.254Z,102019.84
2023-05-18T17:58:44.766Z,102035.44
2023-05-18T18:01:12.157Z,102028.75
2023-05-18T18:03:39.034Z,102033.72
2023-05-18T18:06:06.420Z,102036.28
2023-05-18T18:08:33.320Z,102029.59
2023-05-18T18:10:59.870Z,102027.78
2023-05-18T18:13:26.650Z,102026.91
2023-05-18T18:15:53.492Z,102032.16
2023-05-18T18:18:23.356Z,102031.03
2023-05-18T18:20:50.031Z,102035.47
2023-05-18T18:23:16.512Z,102034.59
2023-05-18T18:25:44.036Z,102030.34
2023-05-18T18:28:14.937Z,102034.28
2023-05-18T18:30:44.238Z,102032.16
2023-05-18T18:33:11.663Z,102028.63
2023-05-18T18:35:38.278Z,102033.72
2023-05-18T18:38:04.937Z,102039.69
2023-05-18T18:40:31.667Z,102042.09
2023-05-18T18:42:58.406Z,102035.44
2023-05-18T18:45:25.681Z,102037.41
2023-05-18T18:47:52.404Z,102034.28
2023-05-18T18:50:18.892Z,102029.75
2023-05-18T18:52:45.612Z,102044.47
2023-05-18T18:55:12.107Z,102051.44
2023-05-18T18:57:38.773Z,102049.31
2023-05-18T19:00:11.086Z,102045.03
2023-05-18T19:02:38.405Z,102052.13
2023-05-18T19:05:05.536Z,102059.09
2023-05-18T19:07:33.097Z,102060.34
2023-05-18T19:09:59.760Z,102058.09
2023-05-18T19:12:26.251Z,102067.84
2023-05-18T19:14:52.750Z,102069.41
2023-05-18T19:17:19.395Z,102068.28
2023-05-18T19:19:46.070Z,102065.97
2023-05-18T19:22:12.562Z,102071.09
2023-05-18T19:24:40.044Z,102073.38
2023-05-18T19:27:06.606Z,102073.09
2023-05-18T19:29:36.457Z,102083.28
2023-05-18T19:32:04.741Z,102079.16
2023-05-18T19:34:31.617Z,102080.16
2023-05-18T19:36:58.221Z,102081.16
2023-05-18T19:39:24.763Z,102079.59
2023-05-18T19:41:51.369Z,102080.41
2023-05-18T19:44:17.871Z,102078.56
2023-05-18T19:46:44.358Z,102086.06
2023-05-18T19:49:11.138Z,102080.91
2023-05-18T19:51:38.124Z,102089.66
2023-05-18T19:54:04.724Z,102085.13
2023-05-18T19:56:31.280Z,102089.25
2023-05-18T19:58:57.873Z,102086.28
2023-05-18T20:01:27.199Z,102085.56
2023-05-18T20:03:53.820Z,102091.03
2023-05-18T20:06:20.471Z,102091.41
2023-05-18T20:08:47.934Z,102085.13
2023-05-18T20:11:14.983Z,102085.16
2023-05-18T20:13:43.776Z,102095.00
2023-05-18T20:16:10.340Z,102103.25
2023-05-18T20:18:37.553Z,102094.44
2023-05-18T20:21:04.322Z,102107.59
2023-05-18T20:23:30.871Z,102105.00
2023-05-18T20:25:57.492Z,102109.84
2023-05-18T20:28:26.152Z,102111.09
2023-05-18T20:30:52.606Z,102115.84
2023-05-18T20:33:19.341Z,102108.78
2023-05-18T20:35:45.978Z,102118.31
2023-05-18T20:38:12.641Z,102124.81
2023-05-18T20:40:39.269Z,102129.56
2023-05-18T20:43:09.949Z,102132.38
2023-05-18T20:45:36.733Z,102128.44
2023-05-18T20:48:06.468Z,102131.63
2023-05-18T20:50:33.810Z,102123.34
2023-05-18T20:53:00.617Z,102128.72
2023-05-18T20:55:27.478Z,102128.84
2023-05-18T20:57:53.958Z,102136.38
2023-05-18T21:00:21.644Z,102127.88
2023-05-18T21:02:48.788Z,102121.28
2023-05-18T21:05:16.286Z,102129.09
2023-05-18T21:07:43.722Z,102131.47
2023-05-18T21:10:11.283Z,102118.56
2023-05-18T21:12:38.240Z,102121.16
2023-05-18T21:15:05.180Z,102122.00
2023-05-18T21:17:31.922Z,102118.84
2023-05-18T21:19:58.580Z,102123.44
2023-05-18T21:22:25.184Z,102123.59
2023-05-18T21:24:51.644Z,102122.44
2023-05-18T21:27:18.119Z,102128.66
2023-05-18T21:29:44.635Z,102128.31
2023-05-18T21:32:11.402Z,102126.75
2023-05-18T21:34:37.983Z,102130.13
2023-05-18T21:37:04.888Z,102126.00
2023-05-18T21:39:31.371Z,102126.66
2023-05-18T21:41:57.908Z,102128.25
2023-05-18T21:44:24.400Z,102127.13
2023-05-18T21:46:57.834Z,102127.91
2023-05-18T21:49:24.513Z,102130.78
2023-05-18T21:51:51.361Z,102125.34
2023-05-18T21:54:17.872Z,102128.75
2023-05-18T21:56:44.510Z,102133.25
2023-05-18T21:59:10.999Z,102131.56
2023-05-18T22:01:37.577Z,102126.81
2023-05-18T22:04:04.310Z,102138.63
2023-05-18T22:06:31.150Z,102134.72
2023-05-18T22:08:57.754Z,102127.59
2023-05-18T22:11:24.609Z,102125.91
2023-05-18T22:13:51.442Z,102130.53
2023-05-18T22:16:18.021Z,102127.72
2023-05-18T22:18:44.708Z,102130.00
2023-05-18T22:21:11.327Z,102131.72
2023-05-18T22:23:39.162Z,102129.09
2023-05-18T22:26:05.791Z,102135.09
2023-05-18T22:28:32.282Z,102130.34
2023-05-18T22:30:58.751Z,102129.38
2023-05-18T22:33:25.573Z,102140.00
2023-05-18T22:35:52.080Z,102131.78
2023-05-18T22:38:18.717Z,102130.34
2023-05-18T22:40:45.623Z,102143.28
2023-05-18T22:43:12.289Z,102134.97
2023-05-18T22:45:38.955Z,102132.00
2023-05-18T22:48:05.665Z,102121.81
2023-05-18T22:50:32.416Z,102127.63
2023-05-18T22:52:59.055Z,102125.56
2023-05-18T22:55:25.600Z,102126.00
2023-05-18T22:57:52.075Z,102129.13
2023-05-18T23:00:19.149Z,102126.63
2023-05-18T23:02:45.916Z,102128.66
2023-05-18T23:05:13.481Z,102126.94
2023-05-18T23:07:41.861Z,102120.88
2023-05-18T23:10:11.272Z,102119.06
2023-05-18T23:12:38.473Z,102116.91
2023-05-18T23:15:06.156Z,102118.44
2023-05-18T23:17:33.808Z,102120.53
2023-05-18T23:20:09.959Z,102122.56
2023-05-18T23:22:36.507Z,102122.66
2023-05-18T23:25:04.694Z,102122.00
2023-05-18T23:27:31.359Z,102121.31
2023-05-18T23:29:57.935Z,102125.03
2023-05-18T23:32:24.913Z,102122.94
2023-05-18T23:34:52.975Z,102120.88
2023-05-18T23:37:23.058Z,102120.13
2023-05-18T23:39:51.851Z,102130.03
2023-05-18T23:42:22.919Z,102119.06
2023-05-18T23:44:49.714Z,102119.50
2023-05-18T23:47:16.716Z,102116.53
2023-05-18T23:49:44.326Z,102112.84
2023-05-18T23:52:11.727Z,102116.94
2023-05-18T23:54:38.698Z,102107.72
2023-05-18T23:57:05.733Z,102113.69
2023-05-18T23:59:32.522Z,102118.00
